Time;durP1;ratioP1;P1;durP2;ratioP2;P2;SDS_P1;SDS_P2;PMS_P1;PMS_P2;Temp;Humidity;BMP_temperature;BMP_pressure;BME280_temperature;BME280_humidity;BME280_pressure;Samples;Min_cycle;Max_cycle;Signal;HPM_P1;HPM_P2
2023/03/28 00:01:06;;;;;;;13.23;3.03;;;3.60;99.90;;;;;;6337295;22;20026;-86
2023/03/28 00:03:34;;;;;;;9.68;2.28;;;3.60;99.90;;;;;;6336727;22;20068;-87
2023/03/28 00:06:01;;;;;;;14.70;2.20;;;3.60;99.90;;;;;;6336298;22;20011;-87
2023/03/28 00:08:28;;;;;;;13.13;2.38;;;3.60;99.90;;;;;;6307681;22;20015;-88
2023/03/28 00:11:10;;;;;;;11.60;2.72;;;3.60;99.90;;;;;;6335671;22;20029;-87
2023/03/28 00:13:36;;;;;;;11.50;2.67;;;3.60;99.90;;;;;;6308290;22;20075;-88
2023/03/28 00:16:08;;;;;;;8.15;2.53;;;3.60;99.90;;;;;;6337797;22;20021;-87
2023/03/28 00:18:37;;;;;;;9.20;2.10;;;3.60;99.90;;;;;;6308484;22;20022;-88
2023/03/28 00:21:24;;;;;;;10.05;2.80;;;3.60;99.90;;;;;;6281316;22;20080;-86
2023/03/28 00:23:55;;;;;;;8.35;2.05;;;3.60;99.90;;;;;;6307823;22;20068;-88
2023/03/28 00:26:23;;;;;;;15.98;3.65;;;3.60;99.90;;;;;;6308091;22;20034;-87
2023/03/28 00:28:50;;;;;;;5.43;2.30;;;3.60;99.90;;;;;;6308503;22;20042;-88
2023/03/28 00:31:17;;;;;;;7.68;2.47;;;3.60;99.90;;;;;;6335231;22;20349;-87
2023/03/28 00:33:46;;;;;;;7.18;2.30;;;3.60;99.90;;;;;;6335627;22;20377;-87
2023/03/28 00:36:22;;;;;;;13.57;3.78;;;3.60;99.90;;;;;;6333896;22;20209;-88
2023/03/28 00:38:52;;;;;;;5.88;2.05;;;3.50;99.90;;;;;;6335493;22;20011;-87
2023/03/28 00:41:22;;;;;;;15.18;3.35;;;3.50;99.90;;;;;;6335244;22;20054;-87
2023/03/28 00:43:53;;;;;;;6.80;2.45;;;3.50;99.90;;;;;;6306646;22;20089;-88
2023/03/28 00:46:40;;;;;;;13.18;2.85;;;3.50;99.90;;;;;;6307357;22;20079;-88
2023/03/28 00:49:12;;;;;;;9.02;2.40;;;3.50;99.90;;;;;;6307445;22;20412;-87
2023/03/28 00:51:41;;;;;;;9.88;2.08;;;3.50;99.90;;;;;;6335144;22;20010;-88
2023/03/28 00:54:11;;;;;;;10.00;2.42;;;3.50;99.90;;;;;;6335237;22;20019;-87
2023/03/28 00:56:40;;;;;;;9.80;2.35;;;3.50;99.90;;;;;;6335198;22;20010;-87
2023/03/28 00:59:10;;;;;;;5.88;2.40;;;3.50;99.90;;;;;;6306903;22;20010;-87
2023/03/28 01:01:36;;;;;;;9.25;2.67;;;3.50;99.90;;;;;;6281200;22;20095;-87
2023/03/28 01:04:02;;;;;;;5.93;2.22;;;3.50;99.90;;;;;;6306932;22;20457;-87
2023/03/28 01:06:34;;;;;;;12.45;2.22;;;3.40;99.90;;;;;;6335718;22;20014;-86
2023/03/28 01:09:03;;;;;;;11.00;2.35;;;3.50;99.90;;;;;;6336092;22;20409;-87
2023/03/28 01:11:31;;;;;;;8.02;1.70;;;3.50;99.90;;;;;;6334697;22;20027;-86
2023/03/28 01:14:01;;;;;;;8.25;1.95;;;3.50;99.90;;;;;;6334869;22;20075;-87
2023/03/28 01:16:29;;;;;;;13.00;2.70;;;3.50;99.90;;;;;;6306638;22;20025;-88
2023/03/28 01:19:00;;;;;;;14.50;2.20;;;3.50;99.90;;;;;;6334882;22;20018;-87
2023/03/28 01:21:47;;;;;;;9.05;2.50;;;3.40;99.90;;;;;;6306982;22;20022;-87
2023/03/28 01:24:19;;;;;;;13.23;2.70;;;3.40;99.90;;;;;;6335054;22;20014;-87
2023/03/28 01:27:01;;;;;;;4.60;1.90;;;3.40;99.90;;;;;;6307251;22;20465;-86
2023/03/28 01:29:39;;;;;;;12.35;2.95;;;3.50;99.90;;;;;;6334134;22;20015;-87
2023/03/28 01:32:23;;;;;;;20.35;4.30;;;3.50;99.90;;;;;;6307424;22;20015;-87
2023/03/28 01:35:18;;;;;;;8.40;2.67;;;3.40;99.90;;;;;;6336338;22;20006;-86
2023/03/28 01:37:52;;;;;;;13.32;3.30;;;3.40;99.90;;;;;;6309711;22;20010;-87
2023/03/28 01:40:40;;;;;;;10.07;1.95;;;3.40;99.90;;;;;;6309138;22;20023;-87
2023/03/28 01:43:40;;;;;;;8.88;2.53;;;3.40;99.90;;;;;;6306759;22;20036;-88
2023/03/28 01:46:30;;;;;;;10.85;3.40;;;3.30;99.90;;;;;;6306694;22;20412;-87
2023/03/28 01:49:03;;;;;;;12.57;1.98;;;3.30;99.90;;;;;;6307513;22;20094;-87
2023/03/28 01:51:56;;;;;;;9.77;2.13;;;3.30;99.90;;;;;;6306820;22;20021;-87
2023/03/28 01:54:31;;;;;;;13.30;2.80;;;3.20;99.90;;;;;;6306608;22;20441;-87
2023/03/28 01:57:03;;;;;;;12.95;2.22;;;3.20;99.90;;;;;;6306605;22;20011;-88
2023/03/28 01:59:37;;;;;;;9.98;2.67;;;3.20;99.90;;;;;;6334998;22;20015;-89
2023/03/28 02:02:10;;;;;;;13.45;2.45;;;3.20;99.90;;;;;;6335834;22;20037;-87
2023/03/28 02:04:37;;;;;;;;;;;3.10;99.90;;;;;;6335628;22;20045;-88
2023/03/28 02:07:04;;;;;;;11.88;2.53;;;3.10;99.90;;;;;;6306465;22;19963;-88
2023/03/28 02:09:31;;;;;;;14.10;2.83;;;3.10;99.90;;;;;;6336433;22;20015;-86
2023/03/28 02:12:23;;;;;;;15.63;2.35;;;3.10;99.90;;;;;;6307016;22;20022;-87
2023/03/28 02:14:52;;;;;;;12.57;2.85;;;3.10;99.90;;;;;;6334641;22;20018;-88
2023/03/28 02:17:21;;;;;;;8.48;2.03;;;3.10;99.90;;;;;;6334486;22;20022;-88
2023/03/28 02:20:07;;;;;;;7.43;2.75;;;3.00;99.90;;;;;;6306628;22;20025;-87
2023/03/28 02:22:59;;;;;;;9.68;2.08;;;3.10;99.90;;;;;;6306863;22;20336;-87
2023/03/28 02:25:25;;;;;;;5.20;2.10;;;3.10;99.90;;;;;;6265605;22;20023;-87
2023/03/28 02:27:55;;;;;;;6.93;2.20;;;3.00;99.90;;;;;;6306697;22;20019;-88
2023/03/28 02:30:22;;;;;;;7.10;1.85;;;3.00;99.90;;;;;;6306833;22;20014;-88
2023/03/28 02:32:49;;;;;;;13.45;3.72;;;3.00;99.90;;;;;;6306912;22;20026;-88
2023/03/28 02:35:19;;;;;;;13.38;3.75;;;2.90;99.90;;;;;;6307285;22;20022;-88
2023/03/28 02:38:06;;;;;;;9.00;2.40;;;2.90;99.90;;;;;;6308035;22;20050;-87
2023/03/28 02:40:31;;;;;;;6.88;2.47;;;3.00;99.90;;;;;;6307911;22;20007;-86
2023/03/28 02:43:24;;;;;;;15.88;2.92;;;3.00;99.90;;;;;;6301872;22;20106;-87
2023/03/28 02:45:50;;;;;;;;;;;2.90;99.90;;;;;;6302977;22;20023;-87
2023/03/28 02:48:29;;;;;;;7.40;2.28;;;2.90;99.90;;;;;;6302213;22;20234;-87
2023/03/28 02:51:14;;;;;;;12.27;3.90;;;2.90;99.90;;;;;;6302063;22;20068;-88
2023/03/28 02:53:50;;;;;;;4.03;1.85;;;2.80;99.90;;;;;;6303887;22;20152;-87
2023/03/28 02:56:22;;;;;;;9.05;2.30;;;2.80;99.90;;;;;;6304141;22;20030;-87
2023/03/28 02:58:55;;;;;;;10.03;2.53;;;2.80;99.90;;;;;;6305241;22;20409;-87
2023/03/28 03:01:27;;;;;;;9.73;2.17;;;2.80;99.90;;;;;;6303308;22;20253;-88
2023/03/28 03:03:54;;;;;;;17.70;2.67;;;2.70;99.90;;;;;;6304222;22;20046;-88
2023/03/28 03:06:20;;;;;;;9.20;2.38;;;2.70;99.90;;;;;;6301551;22;20019;-87
2023/03/28 03:08:45;;;;;;;10.45;2.45;;;2.70;99.90;;;;;;6300862;22;20019;-88
2023/03/28 03:11:11;;;;;;;10.68;2.45;;;2.70;99.90;;;;;;6302119;22;20403;-87
2023/03/28 03:13:37;;;;;;;8.55;1.98;;;2.70;99.90;;;;;;6300217;22;20021;-87
2023/03/28 03:16:04;;;;;;;11.98;2.95;;;2.70;99.90;;;;;;6300304;22;20022;-84
2023/03/28 03:18:29;;;;;;;9.55;3.05;;;2.60;99.90;;;;;;6300589;22;20011;-87
2023/03/28 03:20:55;;;;;;;7.40;2.25;;;2.60;99.90;;;;;;6302348;22;20073;-88
2023/03/28 03:23:21;;;;;;;6.38;2.35;;;2.60;99.90;;;;;;6303351;22;20012;-87
2023/03/28 03:25:49;;;;;;;10.70;2.67;;;2.60;99.90;;;;;;6303199;22;20275;-87
2023/03/28 03:28:15;;;;;;;13.80;2.58;;;2.60;99.90;;;;;;6302683;22;20025;-87
2023/03/28 03:30:41;;;;;;;8.52;2.00;;;2.60;99.90;;;;;;6304177;22;20011;-87
2023/03/28 03:33:09;;;;;;;9.25;2.63;;;2.50;99.90;;;;;;6305014;22;20108;-87
2023/03/28 03:35:36;;;;;;;14.75;2.60;;;2.50;99.90;;;;;;6305181;22;20480;-87
2023/03/28 03:38:02;;;;;;;7.68;2.38;;;2.50;99.90;;;;;;6303586;22;20086;-87
2023/03/28 03:40:28;;;;;;;14.60;2.50;;;2.50;99.90;;;;;;6302526;22;20097;-87
2023/03/28 03:42:54;;;;;;;7.25;2.65;;;2.50;99.90;;;;;;6302276;22;20338;-87
2023/03/28 03:45:20;;;;;;;10.48;2.42;;;2.50;99.90;;;;;;6301829;22;20031;-87
2023/03/28 03:47:46;;;;;;;11.05;2.55;;;2.60;99.90;;;;;;6304105;22;20116;-87
2023/03/28 03:50:12;;;;;;;10.93;2.75;;;2.60;99.90;;;;;;6304501;22;20092;-87
2023/03/28 03:52:38;;;;;;;7.57;1.88;;;2.50;99.90;;;;;;6304318;22;20376;-86
2023/03/28 03:55:05;;;;;;;6.25;1.83;;;2.50;99.90;;;;;;6304406;22;20382;-87
2023/03/28 03:57:31;;;;;;;6.38;2.08;;;2.50;99.90;;;;;;6305053;22;20018;-88
2023/03/28 03:59:57;;;;;;;5.93;2.20;;;2.50;99.90;;;;;;6302206;22;20325;-86
2023/03/28 04:02:22;;;;;;;6.88;2.20;;;2.50;99.90;;;;;;6302118;22;20018;-87
2023/03/28 04:04:48;;;;;;;8.38;2.30;;;2.50;99.90;;;;;;6305220;22;20049;-87
2023/03/28 04:07:15;;;;;;;9.80;2.22;;;2.50;99.90;;;;;;6304340;22;20425;-87
2023/03/28 04:09:40;;;;;;;15.38;2.95;;;2.50;99.90;;;;;;6302354;22;20047;-87
2023/03/28 04:12:06;;;;;;;8.35;2.25;;;2.40;99.90;;;;;;6302631;22;20030;-86
2023/03/28 04:14:32;;;;;;;8.27;2.25;;;2.40;99.90;;;;;;6302288;22;20017;-87
2023/03/28 04:16:58;;;;;;;10.15;2.35;;;2.40;99.90;;;;;;6303032;22;20019;-86
2023/03/28 04:19:24;;;;;;;12.35;2.10;;;2.30;99.90;;;;;;6305617;22;20019;-85
2023/03/28 04:21:51;;;;;;;9.93;2.45;;;2.30;99.90;;;;;;6303801;22;20034;-86
2023/03/28 04:24:19;;;;;;;11.25;2.20;;;2.30;99.90;;;;;;6302901;22;20096;-85
2023/03/28 04:26:48;;;;;;;8.07;2.30;;;2.30;99.90;;;;;;6303356;22;20015;-86
2023/03/28 04:29:16;;;;;;;7.63;2.38;;;2.30;99.90;;;;;;6302688;22;20037;-86
2023/03/28 04:31:48;;;;;;;7.90;2.38;;;2.30;99.90;;;;;;6305525;22;20464;-86
2023/03/28 04:34:18;;;;;;;19.00;2.72;;;2.30;99.90;;;;;;6302872;22;20011;-86
2023/03/28 04:36:45;;;;;;;17.63;2.78;;;2.30;99.90;;;;;;6300891;22;20566;-85
2023/03/28 04:39:12;;;;;;;11.00;2.42;;;2.30;99.90;;;;;;6301474;22;20027;-88
2023/03/28 04:41:38;;;;;;;11.48;3.00;;;2.40;99.90;;;;;;6301447;22;20614;-88
2023/03/28 04:44:04;;;;;;;7.15;2.58;;;2.40;99.90;;;;;;6275812;22;20114;-88
2023/03/28 04:46:30;;;;;;;8.02;2.58;;;2.40;99.90;;;;;;6301726;22;20022;-87
2023/03/28 04:48:56;;;;;;;5.30;2.03;;;2.40;99.90;;;;;;6301765;22;20678;-86
2023/03/28 04:51:21;;;;;;;6.97;3.05;;;2.40;99.90;;;;;;6302751;22;20019;-86
2023/03/28 04:53:47;;;;;;;9.88;2.28;;;2.40;99.90;;;;;;6302067;22;20011;-86
2023/03/28 04:56:13;;;;;;;14.00;2.50;;;2.40;99.90;;;;;;6301457;22;20019;-86
2023/03/28 04:58:40;;;;;;;7.13;2.08;;;2.40;99.90;;;;;;6302813;22;20460;-86
2023/03/28 05:01:09;;;;;;;10.07;3.40;;;2.40;99.90;;;;;;6302413;22;20462;-85
2023/03/28 05:03:36;;;;;;;9.80;2.58;;;2.50;99.90;;;;;;6303505;22;20015;-86
2023/03/28 05:06:02;;;;;;;7.82;3.05;;;2.40;99.90;;;;;;6304875;22;20031;-87
2023/03/28 05:08:28;;;;;;;7.80;2.72;;;2.50;99.90;;;;;;6304949;22;20062;-86
2023/03/28 05:10:54;;;;;;;4.03;1.80;;;2.60;99.90;;;;;;6304380;22;20011;-85
2023/03/28 05:13:20;;;;;;;8.43;2.35;;;2.50;99.90;;;;;;6301877;22;20027;-87
2023/03/28 05:15:46;;;;;;;5.00;2.30;;;2.50;99.90;;;;;;6302386;22;20472;-87
2023/03/28 05:18:13;;;;;;;11.45;2.45;;;2.60;99.90;;;;;;6304145;22;20438;-87
2023/03/28 05:20:38;;;;;;;7.22;2.08;;;2.50;99.90;;;;;;6303997;22;20026;-87
2023/03/28 05:23:07;;;;;;;9.63;2.33;;;2.60;99.90;;;;;;6302536;22;20019;-87
2023/03/28 05:25:33;;;;;;;5.07;2.15;;;2.60;99.90;;;;;;6302493;22;20488;-86
2023/03/28 05:28:00;;;;;;;8.30;2.17;;;2.60;99.90;;;;;;6301515;22;20015;-86
2023/03/28 05:30:26;;;;;;;10.15;3.35;;;2.70;99.90;;;;;;6301013;22;20492;-87
2023/03/28 05:32:51;;;;;;;9.73;2.50;;;2.70;99.90;;;;;;6301344;22;20011;-87
2023/03/28 05:35:17;;;;;;;8.65;3.05;;;2.70;99.90;;;;;;6303666;22;20022;-87
2023/03/28 05:37:44;;;;;;;11.98;2.90;;;2.80;99.90;;;;;;6302072;22;20525;-86
2023/03/28 05:40:12;;;;;;;6.22;1.95;;;2.80;99.90;;;;;;6303097;22;20018;-85
2023/03/28 05:42:38;;;;;;;5.32;2.30;;;2.90;99.90;;;;;;6304107;22;20043;-86
2023/03/28 05:45:06;;;;;;;6.95;2.42;;;2.90;99.90;;;;;;6305609;22;20090;-85
2023/03/28 05:47:33;;;;;;;8.07;2.67;;;2.90;99.90;;;;;;6302334;22;20063;-85
2023/03/28 05:49:59;;;;;;;5.97;2.70;;;2.90;99.90;;;;;;6302680;22;20054;-86
2023/03/28 05:52:25;;;;;;;7.70;2.63;;;3.00;99.90;;;;;;6304548;22;20026;-86
2023/03/28 05:54:51;;;;;;;10.38;2.65;;;3.00;99.90;;;;;;6306290;22;20035;-86
2023/03/28 05:57:17;;;;;;;8.27;2.42;;;3.00;99.90;;;;;;6306246;22;20116;-86
2023/03/28 05:59:43;;;;;;;5.93;2.15;;;3.00;99.90;;;;;;6305729;22;20342;-86
2023/03/28 06:02:13;;;;;;;6.57;2.25;;;3.00;99.90;;;;;;6305807;22;20015;-86
2023/03/28 06:04:39;;;;;;;5.32;2.55;;;3.10;99.90;;;;;;6304032;22;20018;-79
2023/03/28 06:07:06;;;;;;;7.20;2.20;;;3.10;99.90;;;;;;6300150;22;20393;-82
2023/03/28 06:09:33;;;;;;;10.05;2.40;;;3.10;99.90;;;;;;6300266;22;20033;-82
2023/03/28 06:12:00;;;;;;;10.90;2.15;;;3.20;99.90;;;;;;6302367;22;20011;-83
2023/03/28 06:14:26;;;;;;;6.30;2.13;;;3.30;99.90;;;;;;6301248;22;20082;-83
2023/03/28 06:16:52;;;;;;;8.77;2.35;;;3.30;99.90;;;;;;6300063;22;20019;-82
2023/03/28 06:19:18;;;;;;;5.20;1.90;;;3.40;99.90;;;;;;6301668;22;20265;-82
2023/03/28 06:21:43;;;;;;;6.20;2.50;;;3.40;99.90;;;;;;6300266;22;20022;-82
2023/03/28 06:24:10;;;;;;;7.45;2.10;;;3.50;99.90;;;;;;6300784;22;20106;-82
2023/03/28 06:26:35;;;;;;;9.63;2.50;;;3.40;99.90;;;;;;6300543;22;20034;-82
2023/03/28 06:29:02;;;;;;;10.95;2.33;;;3.60;99.90;;;;;;6300555;22;20011;-82
2023/03/28 06:31:28;;;;;;;4.15;2.03;;;3.60;99.90;;;;;;6301076;22;20489;-83
2023/03/28 06:33:53;;;;;;;5.88;2.75;;;3.70;99.90;;;;;;6300573;22;20026;-83
2023/03/28 06:36:19;;;;;;;8.18;2.10;;;3.70;99.90;;;;;;6300979;22;20023;-82
2023/03/28 06:38:46;;;;;;;5.55;2.25;;;3.80;99.90;;;;;;6300307;22;20023;-82
2023/03/28 06:41:12;;;;;;;3.70;2.55;;;3.80;99.90;;;;;;6301286;22;20102;-84
2023/03/28 06:43:37;;;;;;;10.25;2.38;;;3.80;99.90;;;;;;6325370;22;20019;-85
2023/03/28 06:46:03;;;;;;;7.35;3.00;;;3.80;99.90;;;;;;6331909;22;20034;-84
2023/03/28 06:48:30;;;;;;;8.57;2.42;;;3.70;99.90;;;;;;6333470;22;20428;-83
2023/03/28 06:50:59;;;;;;;5.38;2.25;;;3.70;99.90;;;;;;6333748;22;20019;-85
2023/03/28 06:53:25;;;;;;;6.63;2.40;;;3.80;99.90;;;;;;6334360;22;20015;-84
2023/03/28 06:55:52;;;;;;;7.45;2.58;;;3.70;99.90;;;;;;6307630;22;20090;-87
2023/03/28 06:58:19;;;;;;;7.95;2.72;;;3.80;99.90;;;;;;6306367;22;20073;-84
2023/03/28 07:00:46;;;;;;;6.60;2.00;;;3.80;99.90;;;;;;6304209;22;20026;-84
2023/03/28 07:03:12;;;;;;;4.25;2.10;;;3.80;99.90;;;;;;6334539;22;20034;-83
2023/03/28 07:05:38;;;;;;;7.07;2.65;;;3.70;99.90;;;;;;6309126;22;20018;-84
2023/03/28 07:08:05;;;;;;;4.32;2.30;;;3.80;99.90;;;;;;6335870;22;20087;-83
2023/03/28 07:10:31;;;;;;;7.47;2.53;;;3.90;99.90;;;;;;6335231;22;20484;-84
2023/03/28 07:12:56;;;;;;;11.15;2.15;;;3.90;99.90;;;;;;6306847;22;20011;-80
2023/03/28 07:15:22;;;;;;;14.40;2.65;;;3.90;99.90;;;;;;6281622;22;20011;-79
2023/03/28 07:17:48;;;;;;;10.65;2.15;;;4.10;99.90;;;;;;6335099;22;20071;-79
2023/03/28 07:20:14;;;;;;;8.25;2.75;;;4.20;99.90;;;;;;6334994;22;20413;-79
2023/03/28 07:22:40;;;;;;;5.80;2.10;;;4.20;99.90;;;;;;6306545;22;20394;-79
2023/03/28 07:25:07;;;;;;;5.82;2.10;;;4.20;99.90;;;;;;6306519;22;20439;-76
2023/03/28 07:27:32;;;;;;;7.15;2.20;;;4.30;99.90;;;;;;6334012;22;20007;-76
2023/03/28 07:29:58;;;;;;;8.15;2.75;;;4.40;99.90;;;;;;6307066;22;20398;-82
2023/03/28 07:32:24;;;;;;;7.35;3.00;;;4.50;99.90;;;;;;6307670;22;20456;-82
2023/03/28 07:34:50;;;;;;;12.50;2.38;;;4.60;99.90;;;;;;6334794;22;20015;-83
2023/03/28 07:37:16;;;;;;;8.57;2.35;;;4.60;99.90;;;;;;6282169;22;20027;-83
2023/03/28 07:39:42;;;;;;;12.60;3.20;;;4.50;99.90;;;;;;6308285;22;20015;-83
2023/03/28 07:42:13;;;;;;;9.40;2.35;;;4.50;99.90;;;;;;6306758;22;20019;-82
2023/03/28 07:44:39;;;;;;;12.80;2.75;;;4.50;99.90;;;;;;6306491;22;20033;-83
2023/03/28 07:47:05;;;;;;;7.72;2.58;;;4.60;99.90;;;;;;6334111;22;20054;-83
2023/03/28 07:49:31;;;;;;;13.60;2.80;;;4.70;99.90;;;;;;6306869;22;20341;-82
2023/03/28 07:51:57;;;;;;;5.85;2.72;;;4.70;99.90;;;;;;6307067;22;20090;-81
2023/03/28 07:54:23;;;;;;;15.07;3.22;;;4.60;99.90;;;;;;6307474;22;20027;-80
2023/03/28 07:56:50;;;;;;;5.03;2.25;;;4.80;99.90;;;;;;6307601;22;20015;-80
2023/03/28 07:59:16;;;;;;;15.02;3.22;;;4.70;99.90;;;;;;6334712;22;20456;-80
2023/03/28 08:01:43;;;;;;;7.07;2.67;;;4.80;99.90;;;;;;6306358;22;20018;-81
2023/03/28 08:04:11;;;;;;;5.38;2.22;;;4.80;99.90;;;;;;6306538;22;20011;-80
2023/03/28 08:06:38;;;;;;;4.28;2.55;;;4.90;99.90;;;;;;6306814;22;20022;-81
2023/03/28 08:09:09;;;;;;;8.13;2.75;;;4.90;99.90;;;;;;6307316;22;20031;-81
2023/03/28 08:11:36;;;;;;;13.13;2.83;;;5.00;99.90;;;;;;6306682;22;20080;-81
2023/03/28 08:14:03;;;;;;;8.40;3.28;;;5.00;99.90;;;;;;6280963;22;20060;-81
2023/03/28 08:16:29;;;;;;;6.43;2.60;;;5.10;99.90;;;;;;6334951;22;20046;-82
2023/03/28 08:18:55;;;;;;;5.68;2.63;;;5.20;99.90;;;;;;6306414;22;20011;-82
2023/03/28 08:21:21;;;;;;;7.97;2.45;;;5.20;99.90;;;;;;6306257;22;20026;-81
2023/03/28 08:23:47;;;;;;;6.82;2.35;;;5.20;99.90;;;;;;6306268;22;20026;-80
2023/03/28 08:26:13;;;;;;;5.15;2.78;;;5.30;99.90;;;;;;6306901;22;20018;-81
2023/03/28 08:28:40;;;;;;;7.18;2.63;;;5.30;99.90;;;;;;6334664;22;20022;-81
2023/03/28 08:31:13;;;;;;;6.28;2.88;;;5.40;99.90;;;;;;6305544;22;20030;-80
2023/03/28 08:33:51;;;;;;;6.63;2.40;;;5.50;99.90;;;;;;6306096;22;20019;-81
2023/03/28 08:36:19;;;;;;;10.15;2.90;;;5.50;99.90;;;;;;6306160;22;20014;-82
2023/03/28 08:38:46;;;;;;;6.68;3.40;;;5.60;99.90;;;;;;6305964;22;20015;-81
2023/03/28 08:41:26;;;;;;;9.65;2.75;;;5.60;99.90;;;;;;6306121;22;20019;-80
2023/03/28 08:44:04;;;;;;;10.63;2.55;;;5.60;99.90;;;;;;6305213;22;20018;-82
2023/03/28 08:46:32;;;;;;;12.88;3.10;;;5.60;99.90;;;;;;6305871;22;20015;-81
2023/03/28 08:49:03;;;;;;;4.63;2.63;;;5.70;99.90;;;;;;6333755;22;20042;-82
2023/03/28 08:51:34;;;;;;;4.95;2.70;;;5.80;99.90;;;;;;6305960;22;20030;-81
2023/03/28 08:54:07;;;;;;;10.63;3.08;;;5.80;99.90;;;;;;6305713;22;20409;-81
2023/03/28 08:56:41;;;;;;;8.63;2.72;;;5.90;99.90;;;;;;6305800;22;20085;-81
2023/03/28 08:59:12;;;;;;;6.03;2.47;;;5.90;99.90;;;;;;6305728;22;20026;-82
2023/03/28 09:01:38;;;;;;;8.93;2.40;;;5.90;99.90;;;;;;6305682;22;20015;-82
2023/03/28 09:04:04;;;;;;;6.75;3.20;;;5.90;99.90;;;;;;6305607;22;20050;-82
2023/03/28 09:06:30;;;;;;;5.78;2.75;;;6.00;99.90;;;;;;6305550;22;20037;-83
2023/03/28 09:09:24;;;;;;;4.40;2.35;;;5.90;99.90;;;;;;6305668;22;20452;-83
2023/03/28 09:11:56;;;;;;;;;;;6.10;99.90;;;;;;6311191;22;20019;-83
2023/03/28 09:14:40;;;;;;;7.88;2.42;;;6.20;99.90;;;;;;6316708;22;20311;-82
2023/03/28 09:17:55;;;;;;;3.50;1.90;;;6.30;99.90;;;;;;6314824;22;20033;-84
2023/03/28 09:20:29;;;;;;;3.58;1.80;;;6.30;99.90;;;;;;6309360;22;20010;-82
2023/03/28 09:23:22;;;;;;;6.13;2.03;;;6.40;99.90;;;;;;6313910;22;20124;-82
2023/03/28 09:26:00;;;;;;;3.30;1.88;;;6.40;99.90;;;;;;6312064;22;20050;-81
2023/03/28 09:28:41;;;;;;;5.28;2.45;;;6.40;99.90;;;;;;6311912;22;20068;-82
2023/03/28 09:31:10;;;;;;;7.78;2.55;;;6.50;99.90;;;;;;6310202;22;20029;-82
2023/03/28 09:33:41;;;;;;;5.18;1.83;;;6.50;99.90;;;;;;6311031;22;20140;-83
2023/03/28 09:36:13;;;;;;;3.55;2.33;;;6.70;99.90;;;;;;6312553;22;20018;-83
2023/03/28 09:38:55;;;;;;;7.17;1.70;;;6.70;99.90;;;;;;6285697;22;20011;-82
2023/03/28 09:41:36;;;;;;;8.00;2.57;;;6.70;99.90;;;;;;6307670;22;20345;-81
2023/03/28 09:44:05;;;;;;;8.63;1.80;;;6.70;99.90;;;;;;6338327;22;20259;-83
2023/03/28 09:46:50;;;;;;;5.40;1.75;;;6.80;99.90;;;;;;6340503;22;20019;-82
2023/03/28 09:49:17;;;;;;;2.15;1.40;;;6.80;99.90;;;;;;6344781;22;20018;-83
2023/03/28 09:51:44;;;;;;;2.05;1.20;;;6.90;99.90;;;;;;6316989;22;20046;-82
2023/03/28 09:54:11;;;;;;;9.35;1.70;;;7.00;99.90;;;;;;6308098;22;20018;-82
2023/03/28 09:56:39;;;;;;;3.85;2.30;;;7.20;99.90;;;;;;6307990;22;20014;-82
2023/03/28 09:59:20;;;;;;;6.05;1.60;;;7.30;99.90;;;;;;6307642;22;20023;-83
2023/03/28 10:01:48;;;;;;;3.42;1.60;;;7.30;99.90;;;;;;6307566;22;20038;-82
2023/03/28 10:04:16;;;;;;;3.45;1.40;;;7.40;99.90;;;;;;6307925;22;20018;-83
2023/03/28 10:06:43;;;;;;;6.22;1.52;;;7.40;99.90;;;;;;6307597;22;20094;-83
2023/03/28 10:09:14;;;;;;;2.75;1.45;;;7.50;99.90;;;;;;6308796;22;20326;-83
2023/03/28 10:11:53;;;;;;;6.32;1.35;;;7.40;99.90;;;;;;6310372;22;20094;-83
2023/03/28 10:14:36;;;;;;;4.25;1.85;;;7.50;99.90;;;;;;6309677;22;20373;-81
2023/03/28 10:17:05;;;;;;;3.70;1.42;;;7.50;99.90;;;;;;6306501;22;20078;-81
2023/03/28 10:19:38;;;;;;;4.50;1.77;;;7.70;99.90;;;;;;6307709;22;20086;-78
2023/03/28 10:22:09;;;;;;;3.92;1.63;;;7.80;99.90;;;;;;6334020;22;20014;-81
2023/03/28 10:24:36;;;;;;;2.10;1.45;;;7.90;99.90;;;;;;6304998;22;20022;-78
2023/03/28 10:27:13;;;;;;;3.50;1.60;;;7.90;99.90;;;;;;6304862;22;20011;-78
2023/03/28 10:29:39;;;;;;;2.55;1.45;;;7.90;99.90;;;;;;6305305;22;20040;-80
2023/03/28 10:32:06;;;;;;;3.10;1.52;;;7.90;99.90;;;;;;6333509;22;20496;-81
2023/03/28 10:34:35;;;;;;;1.98;1.52;;;7.80;99.90;;;;;;6279649;22;20033;-81
2023/03/28 10:37:01;;;;;;;2.05;1.70;;;7.90;99.90;;;;;;6305072;22;20057;-83
2023/03/28 10:39:32;;;;;;;4.55;2.17;;;8.00;99.90;;;;;;6306230;22;20094;-82
2023/03/28 10:41:59;;;;;;;4.80;1.90;;;8.00;99.90;;;;;;6333923;22;20014;-82
2023/03/28 10:44:36;;;;;;;5.55;1.80;;;8.10;99.90;;;;;;6307787;22;20019;-81
2023/03/28 10:47:05;;;;;;;2.60;1.73;;;8.10;99.90;;;;;;6335159;22;20007;-81
2023/03/28 10:49:55;;;;;;;2.83;2.08;;;8.20;99.90;;;;;;6333885;22;20007;-81
2023/03/28 10:52:46;;;;;;;2.70;1.50;;;8.20;99.90;;;;;;6294962;22;20043;-83
2023/03/28 10:55:16;;;;;;;3.67;1.67;;;8.20;99.90;;;;;;6333739;22;20014;-81
2023/03/28 10:58:11;;;;;;;2.67;1.80;;;8.30;99.90;;;;;;6306344;22;20015;-83
2023/03/28 11:00:42;;;;;;;4.15;1.85;;;8.10;99.90;;;;;;6333547;22;20046;-82
2023/03/28 11:03:32;;;;;;;7.25;2.15;;;8.20;99.90;;;;;;6335606;22;20306;-83
2023/03/28 11:06:16;;;;;;;4.43;1.45;;;8.10;99.90;;;;;;6310945;22;20424;-83
2023/03/28 11:08:57;;;;;;;3.13;1.90;;;8.10;99.90;;;;;;6306130;22;20015;-81
2023/03/28 11:11:43;;;;;;;5.35;2.65;;;8.10;99.90;;;;;;6332911;22;20065;-83
2023/03/28 11:14:30;;;;;;;4.97;1.63;;;8.10;99.90;;;;;;6305590;22;20014;-82
2023/03/28 11:17:09;;;;;;;5.22;2.10;;;8.10;99.90;;;;;;6304408;22;20042;-83
2023/03/28 11:20:00;;;;;;;3.30;2.15;;;8.10;99.90;;;;;;6303978;22;20103;-82
2023/03/28 11:22:56;;;;;;;5.20;1.58;;;8.20;99.90;;;;;;6303716;22;20019;-82
2023/03/28 11:26:03;;;;;;;7.90;2.35;;;8.20;99.90;;;;;;6303666;22;20015;-82
2023/03/28 11:28:45;;;;;;;7.75;1.60;;;8.30;99.90;;;;;;6283534;22;20014;-77
2023/03/28 11:31:16;;;;;;;5.67;2.00;;;8.30;99.90;;;;;;6303721;22;20018;-82
2023/03/28 11:34:25;;;;;;;4.13;1.58;;;8.20;99.90;;;;;;6332044;22;20234;-83
2023/03/28 11:37:04;;;;;;;3.90;1.75;;;8.30;99.90;;;;;;6320435;22;20092;-83
2023/03/28 11:40:06;;;;;;;5.85;1.52;;;8.40;99.90;;;;;;6331503;22;20022;-82
2023/03/28 11:42:47;;;;;;;4.68;2.15;;;8.40;99.90;;;;;;6331946;22;20026;-82
2023/03/28 11:45:13;;;;;;;7.30;1.90;;;8.40;99.90;;;;;;6331807;22;20023;-83
2023/03/28 11:47:42;;;;;;;2.30;1.75;;;8.40;99.90;;;;;;6331979;22;20019;-83
2023/03/28 11:50:23;;;;;;;2.45;1.80;;;8.40;99.90;;;;;;6304758;22;20637;-82
2023/03/28 11:53:03;;;;;;;3.55;1.88;;;8.40;99.90;;;;;;6305543;22;20042;-81
2023/03/28 11:55:35;;;;;;;8.77;2.95;;;8.50;99.90;;;;;;6333973;22;20023;-82
2023/03/28 11:58:01;;;;;;;8.55;2.05;;;8.30;99.90;;;;;;6305252;22;20049;-83
2023/03/28 12:00:30;;;;;;;4.70;1.73;;;8.40;99.90;;;;;;6305623;22;20320;-82
2023/03/28 12:03:16;;;;;;;6.53;1.83;;;8.40;99.90;;;;;;6333163;22;20095;-82
2023/03/28 12:05:56;;;;;;;6.53;2.30;;;8.50;99.90;;;;;;6333238;22;20085;-82
2023/03/28 12:08:42;;;;;;;5.05;3.05;;;8.40;99.90;;;;;;6305596;22;20017;-83
2023/03/28 12:11:23;;;;;;;7.78;2.55;;;8.40;99.90;;;;;;6305316;22;20015;-83
2023/03/28 12:14:21;;;;;;;6.32;3.05;;;8.40;99.90;;;;;;6333614;22;20209;-82
2023/03/28 12:16:49;;;;;;;5.60;2.63;;;8.40;99.90;;;;;;6333610;22;20080;-82
2023/03/28 12:19:36;;;;;;;3.30;2.40;;;8.50;99.90;;;;;;6333890;22;20336;-82
2023/03/28 12:22:13;;;;;;;4.13;2.03;;;8.30;99.90;;;;;;6305158;22;20507;-82
2023/03/28 12:24:48;;;;;;;3.85;1.95;;;8.40;99.90;;;;;;6334443;22;20061;-82
2023/03/28 12:27:41;;;;;;;3.10;2.67;;;8.50;99.90;;;;;;6306350;22;20411;-83
2023/03/28 12:30:25;;;;;;;3.65;2.53;;;8.50;99.90;;;;;;6305373;22;20046;-82
2023/03/28 12:33:05;;;;;;;7.35;2.22;;;8.60;99.90;;;;;;6305298;22;20021;-83
2023/03/28 12:35:58;;;;;;;5.53;2.67;;;8.70;99.90;;;;;;6305598;22;20489;-83
2023/03/28 12:38:32;;;;;;;4.70;2.38;;;8.70;99.90;;;;;;6305614;22;20144;-82
2023/03/28 12:41:01;;;;;;;6.95;2.30;;;8.70;99.90;;;;;;6333372;22;20029;-82
2023/03/28 12:43:45;;;;;;;3.00;1.88;;;8.70;99.90;;;;;;6305533;22;20019;-83
2023/03/28 12:46:15;;;;;;;5.95;3.10;;;8.70;99.90;;;;;;6306060;22;20120;-82
2023/03/28 12:49:04;;;;;;;4.03;2.47;;;8.70;99.90;;;;;;6333908;22;20455;-82
2023/03/28 12:51:35;;;;;;;3.45;2.28;;;8.80;99.90;;;;;;6333599;22;20394;-83
2023/03/28 12:54:08;;;;;;;5.23;2.67;;;8.90;99.90;;;;;;6305193;22;20011;-84
2023/03/28 12:56:34;;;;;;;4.28;2.22;;;8.90;99.90;;;;;;6305369;22;20396;-83
2023/03/28 12:59:14;;;;;;;6.88;2.47;;;8.90;99.90;;;;;;6333644;22;20112;-82
2023/03/28 13:01:46;;;;;;;7.65;2.90;;;8.80;99.90;;;;;;6333657;22;20160;-85
2023/03/28 13:04:26;;;;;;;5.95;2.65;;;8.90;99.90;;;;;;6334068;22;20305;-84
2023/03/28 13:07:06;;;;;;;8.95;2.17;;;8.80;99.90;;;;;;6333317;22;20019;-85
2023/03/28 13:09:37;;;;;;;3.88;2.00;;;8.70;99.90;;;;;;6333303;22;20015;-84
2023/03/28 13:12:21;;;;;;;5.75;3.83;;;8.80;99.90;;;;;;6333302;22;20467;-84
2023/03/28 13:15:02;;;;;;;5.90;3.10;;;8.70;99.90;;;;;;6305703;22;20014;-86
2023/03/28 13:17:33;;;;;;;9.30;4.65;;;8.80;99.90;;;;;;6332888;22;20018;-85
2023/03/28 13:20:17;;;;;;;6.70;3.35;;;8.70;99.90;;;;;;6333633;22;20087;-85